Wind From: 11-12-2017 04:25 Until: 16:00 warning for: Wind Level: Orange info button

Power and phone distribution networks may be disrupted for relatively long periods., Roofs and chimneys can be damaged. , Tree branches may break. , Vehicles can be deported. , Traffic may be disrupted, particularly on secondary roads in forest areas. Limit your trips. , Limit your speed in highway driving, especially if you drive a vehicle or hitch sensitive to wind. , Do not go for walks in forests or along the coast., In town, be vigilant against possible falling objects., Do not work on roofs and do not touch any electrical line fallen on the ground., Store or secure sensitive objects to wind or likely to be damaged., Always install power generators outside buildings. 


Meteo18 Weather Cam more information Meteo18 Weather Cam


Thunder radar more information blitzortung!


Rain radar more information rain snow radar


Visit our other weather sites:

Template documentation
and downloads

And another site



Weather Underground History page Text

Daily Summary for August 5, 2016 Units:  Metric    English   Both
« Previous Day
Next Day »
Daily Weekly Monthly Yearly Custom
  High: Low: Average:
Temperature: 22.2 °C 13.3 °C 17.5 °C
Dew Point: 14.8 °C 10.5 °C 12.3 °C
Humidity: 94 % 48 % 74 %
Wind Speed: 17.7 km/h 0.0 km/h 4.7 km/h
Wind Gust: 25.7 km/h - -
Wind:- - WNW
Pressure: 1024.9 hPa 1016.8 hPa -
Precipitation: 0.3 mm    
Historical Graphs
 
 
Tabular Data for August 5, 2016
Time Temperature Dew Point Pressure Wind Wind Speed Wind Gust Humidity Rainfall Rate (Hourly)
00:07 15.8 °C 14.7 °C 1016.8 hPa West 3.2 km/h 3.2 km/h 93 % 0.0 mm
00:12 15.8 °C 14.7 °C 1016.8 hPa WSW 1.6 km/h 4.8 km/h 93 % 0.0 mm
00:17 15.8 °C 14.7 °C 1016.8 hPa Calm   4.8 km/h 93 % 0.0 mm
00:22 15.8 °C 14.7 °C 1016.8 hPa West 1.6 km/h 4.8 km/h 93 % 0.0 mm
00:27 15.8 °C 14.7 °C 1016.8 hPa WSW 1.6 km/h 3.2 km/h 93 % 0.0 mm
00:32 15.8 °C 14.7 °C 1016.8 hPa West 1.6 km/h 3.2 km/h 93 % 0.0 mm
00:37 15.9 °C 14.8 °C 1016.8 hPa Calm   4.8 km/h 93 % 0.0 mm
00:42 15.9 °C 14.8 °C 1016.8 hPa Calm   4.8 km/h 93 % 0.0 mm
00:47 15.9 °C 14.8 °C 1016.8 hPa Calm   4.8 km/h 93 % 0.0 mm
00:52 15.9 °C 14.8 °C 1016.8 hPa Calm   1.6 km/h 93 % 0.0 mm
00:57 15.9 °C 14.8 °C 1016.8 hPa Calm     93 % 0.0 mm
01:02 15.8 °C 14.7 °C 1016.8 hPa Calm     93 % 0.0 mm
01:07 15.8 °C 14.7 °C 1016.8 hPa Calm     93 % 0.0 mm
01:12 15.7 °C 14.6 °C 1016.8 hPa SW 3.2 km/h   93 % 0.0 mm
01:17 15.7 °C 14.6 °C 1016.8 hPa WSW 3.2 km/h 3.2 km/h 93 % 0.0 mm
01:22 15.7 °C 14.6 °C 1016.8 hPa SW 3.2 km/h 3.2 km/h 93 % 0.0 mm
01:27 15.7 °C 14.6 °C 1017.2 hPa SW 3.2 km/h 4.8 km/h 93 % 0.0 mm
01:32 15.7 °C 14.7 °C 1017.2 hPa SW 4.8 km/h 6.4 km/h 94 % 0.0 mm
01:37 15.6 °C 14.6 °C 1017.2 hPa SW 1.6 km/h 6.4 km/h 94 % 0.0 mm
01:42 15.6 °C 14.6 °C 1017.2 hPa Calm   6.4 km/h 94 % 0.0 mm
01:47 15.6 °C 14.6 °C 1017.2 hPa WSW 3.2 km/h 9.7 km/h 94 % 0.0 mm
01:52 15.6 °C 14.6 °C 1017.2 hPa SSW 1.6 km/h 9.7 km/h 94 % 0.0 mm
02:02 15.6 °C 14.6 °C 1017.2 hPa Calm   6.4 km/h 94 % 0.0 mm
02:07 15.6 °C 14.6 °C 1017.2 hPa Calm   4.8 km/h 94 % 0.0 mm
02:12 15.6 °C 14.6 °C 1017.2 hPa Calm   4.8 km/h 94 % 0.0 mm
02:17 15.6 °C 14.6 °C 1017.2 hPa Calm   4.8 km/h 94 % 0.3 mm
02:22 15.5 °C 14.5 °C 1017.2 hPa Calm   1.6 km/h 94 % 0.3 mm
02:27 15.5 °C 14.5 °C 1017.2 hPa Calm   1.6 km/h 94 % 0.3 mm
02:32 15.4 °C 14.4 °C 1017.2 hPa Calm   1.6 km/h 94 % 0.3 mm
02:37 15.3 °C 14.0 °C 1017.5 hPa WSW 4.8 km/h 4.8 km/h 92 % 0.3 mm
02:42 15.2 °C 13.4 °C 1017.5 hPa WSW 1.6 km/h 9.7 km/h 89 % 0.3 mm
02:47 15.2 °C 13.2 °C 1017.2 hPa WNW 3.2 km/h 11.3 km/h 88 % 0.3 mm
02:52 15.2 °C 13.2 °C 1017.5 hPa NW 3.2 km/h 14.5 km/h 88 % 0.3 mm
02:57 15.1 °C 13.1 °C 1017.5 hPa West 3.2 km/h 14.5 km/h 88 % 0.3 mm
03:02 15.1 °C 13.1 °C 1017.2 hPa WNW 1.6 km/h 14.5 km/h 88 % 0.3 mm
03:12 14.9 °C 12.9 °C 1017.2 hPa WNW 4.8 km/h 6.4 km/h 88 % 0.3 mm
03:17 14.8 °C 12.8 °C 1017.2 hPa West 4.8 km/h 9.7 km/h 88 % 0.0 mm
03:22 14.7 °C 12.7 °C 1017.2 hPa WSW 1.6 km/h 9.7 km/h 88 % 0.0 mm
03:27 14.7 °C 12.7 °C 1017.2 hPa West 1.6 km/h 9.7 km/h 88 % 0.0 mm
03:32 14.6 °C 12.6 °C 1017.2 hPa West 1.6 km/h 6.4 km/h 88 % 0.0 mm
03:37 14.5 °C 12.7 °C 1017.2 hPa Calm   4.8 km/h 89 % 0.0 mm
03:42 14.3 °C 12.5 °C 1017.2 hPa SSW 1.6 km/h 4.8 km/h 89 % 0.0 mm
03:47 14.2 °C 12.6 °C 1017.2 hPa Calm   3.2 km/h 90 % 0.0 mm
03:52 14.0 °C 12.4 °C 1017.5 hPa Calm   1.6 km/h 90 % 0.0 mm
03:57 13.9 °C 12.5 °C 1017.5 hPa Calm   1.6 km/h 91 % 0.0 mm
04:02 13.8 °C 12.5 °C 1017.5 hPa WSW 1.6 km/h 3.2 km/h 92 % 0.0 mm
04:07 13.7 °C 12.4 °C 1017.5 hPa Calm   3.2 km/h 92 % 0.0 mm
04:12 13.8 °C 12.5 °C 1017.2 hPa Calm   3.2 km/h 92 % 0.0 mm
04:17 13.8 °C 12.5 °C 1017.2 hPa SSE 1.6 km/h 3.2 km/h 92 % 0.0 mm
04:22 13.6 °C 12.3 °C 1017.5 hPa Calm   3.2 km/h 92 % 0.0 mm
04:27 13.4 °C 12.1 °C 1017.5 hPa Calm   3.2 km/h 92 % 0.0 mm
04:32 13.3 °C 12.2 °C 1017.5 hPa Calm   3.2 km/h 93 % 0.0 mm
04:37 13.3 °C 12.4 °C 1017.8 hPa Calm   1.6 km/h 94 % 0.0 mm
04:42 13.3 °C 12.4 °C 1017.8 hPa Calm   1.6 km/h 94 % 0.0 mm
04:47 13.3 °C 12.4 °C 1017.8 hPa Calm   3.2 km/h 94 % 0.0 mm
04:52 13.4 °C 12.5 °C 1017.8 hPa Calm   3.2 km/h 94 % 0.0 mm
04:57 13.5 °C 12.6 °C 1017.8 hPa WSW 4.8 km/h 4.8 km/h 94 % 0.0 mm
05:02 13.7 °C 12.8 °C 1017.8 hPa West 1.6 km/h 4.8 km/h 94 % 0.0 mm
05:12 13.8 °C 12.5 °C 1018.2 hPa Calm   8.0 km/h 92 % 0.0 mm
05:17 13.8 °C 12.5 °C 1018.2 hPa SW 1.6 km/h 8.0 km/h 92 % 0.0 mm
05:22 13.8 °C 12.5 °C 1018.2 hPa WSW 1.6 km/h 4.8 km/h 92 % 0.0 mm
05:32 13.7 °C 12.6 °C 1018.5 hPa Calm   3.2 km/h 93 % 0.0 mm
05:42 13.7 °C 12.6 °C 1018.5 hPa West 1.6 km/h 3.2 km/h 93 % 0.0 mm
05:52 13.8 °C 12.5 °C 1018.8 hPa Calm   4.8 km/h 92 % 0.0 mm
06:02 13.8 °C 12.7 °C 1018.8 hPa Calm   4.8 km/h 93 % 0.0 mm
06:07 13.9 °C 12.8 °C 1018.8 hPa Calm   4.8 km/h 93 % 0.0 mm
06:12 13.9 °C 12.8 °C 1018.8 hPa Calm   4.8 km/h 93 % 0.0 mm
06:17 14.0 °C 12.9 °C 1018.8 hPa WNW 1.6 km/h 4.8 km/h 93 % 0.0 mm
06:22 14.1 °C 13.0 °C 1018.8 hPa WNW 4.8 km/h 8.0 km/h 93 % 0.0 mm
06:27 14.2 °C 13.1 °C 1018.8 hPa WNW 1.6 km/h 8.0 km/h 93 % 0.0 mm
06:32 14.2 °C 13.1 °C 1018.8 hPa NW 1.6 km/h 8.0 km/h 93 % 0.0 mm
06:37 14.2 °C 13.1 °C 1018.8 hPa WNW 3.2 km/h 6.4 km/h 93 % 0.0 mm
06:42 14.2 °C 13.1 °C 1018.8 hPa West 1.6 km/h 6.4 km/h 93 % 0.0 mm
06:47 14.2 °C 12.9 °C 1018.8 hPa West 4.8 km/h 9.7 km/h 92 % 0.0 mm
06:57 14.1 °C 12.8 °C 1018.8 hPa NW 1.6 km/h 9.7 km/h 92 % 0.0 mm
07:02 14.1 °C 13.0 °C 1019.2 hPa WNW 8.0 km/h 9.7 km/h 93 % 0.0 mm
07:12 14.1 °C 13.0 °C 1019.2 hPa WNW 9.7 km/h 14.5 km/h 93 % 0.0 mm
07:17 14.1 °C 13.0 °C 1019.5 hPa NNW 3.2 km/h 14.5 km/h 93 % 0.0 mm
07:22 14.0 °C 12.9 °C 1019.5 hPa WNW 6.4 km/h 12.9 km/h 93 % 0.0 mm
07:27 14.0 °C 12.9 °C 1019.5 hPa NW 3.2 km/h 12.9 km/h 93 % 0.0 mm
07:32 14.1 °C 13.0 °C 1019.5 hPa NW 1.6 km/h 12.9 km/h 93 % 0.0 mm
07:37 14.1 °C 13.0 °C 1019.9 hPa NNW 4.8 km/h 12.9 km/h 93 % 0.0 mm
07:42 14.1 °C 13.1 °C 1019.9 hPa NNW 9.7 km/h 12.9 km/h 94 % 0.0 mm
07:52 14.3 °C 13.2 °C 1019.9 hPa West 9.7 km/h 9.7 km/h 93 % 0.0 mm
08:02 14.5 °C 13.2 °C 1020.2 hPa WNW 8.0 km/h 11.3 km/h 92 % 0.0 mm
08:12 14.6 °C 13.1 °C 1020.2 hPa WNW 8.0 km/h 14.5 km/h 91 % 0.0 mm
08:17 14.6 °C 13.3 °C 1020.2 hPa NNW 1.6 km/h 14.5 km/h 92 % 0.0 mm
08:22 14.6 °C 13.1 °C 1020.5 hPa NW 4.8 km/h 14.5 km/h 91 % 0.0 mm
08:32 14.5 °C 12.9 °C 1020.5 hPa NW 8.0 km/h 12.9 km/h 90 % 0.0 mm
08:37 14.6 °C 13.1 °C 1020.5 hPa NNW 1.6 km/h 12.9 km/h 91 % 0.0 mm
08:42 14.6 °C 13.0 °C 1020.5 hPa North 8.0 km/h 12.9 km/h 90 % 0.0 mm
08:47 14.7 °C 13.1 °C 1020.5 hPa North 4.8 km/h 9.7 km/h 90 % 0.0 mm
08:52 14.8 °C 13.2 °C 1020.5 hPa NW 3.2 km/h 11.3 km/h 90 % 0.0 mm
09:02 15.0 °C 13.2 °C 1020.9 hPa WNW 3.2 km/h 11.3 km/h 89 % 0.0 mm
09:12 15.0 °C 12.9 °C 1021.2 hPa NW 6.4 km/h 11.3 km/h 87 % 0.0 mm
09:17 15.0 °C 12.9 °C 1021.2 hPa NW 6.4 km/h 11.3 km/h 87 % 0.0 mm
09:22 15.1 °C 13.0 °C 1021.2 hPa WNW 11.3 km/h 12.9 km/h 87 % 0.0 mm
09:32 15.7 °C 13.4 °C 1021.2 hPa NNW 3.2 km/h 14.5 km/h 86 % 0.0 mm
09:37 15.9 °C 13.0 °C 1021.2 hPa WNW 3.2 km/h 14.5 km/h 83 % 0.0 mm
09:42 15.9 °C 13.2 °C 1021.6 hPa West 3.2 km/h 14.5 km/h 84 % 0.0 mm
09:47 16.1 °C 13.2 °C 1021.6 hPa NW 4.8 km/h 14.5 km/h 83 % 0.0 mm
09:52 16.2 °C 13.5 °C 1021.6 hPa Calm   14.5 km/h 84 % 0.0 mm
09:57 16.1 °C 13.0 °C 1021.6 hPa WNW 4.8 km/h 12.9 km/h 82 % 0.0 mm
10:02 16.2 °C 13.5 °C 1021.6 hPa Calm   11.3 km/h 84 % 0.0 mm
10:12 16.6 °C 13.3 °C 1021.6 hPa West 3.2 km/h 11.3 km/h 81 % 0.0 mm
10:17 16.8 °C 13.5 °C 1021.6 hPa WNW 9.7 km/h 11.3 km/h 81 % 0.0 mm
10:22 17.2 °C 13.5 °C 1021.6 hPa WNW 1.6 km/h 11.3 km/h 79 % 0.0 mm
10:27 17.2 °C 13.5 °C 1021.6 hPa NW 3.2 km/h 11.3 km/h 79 % 0.0 mm
10:32 17.2 °C 12.9 °C 1021.6 hPa WNW 1.6 km/h 12.9 km/h 76 % 0.0 mm
10:37 17.2 °C 12.7 °C 1021.6 hPa West 8.0 km/h 12.9 km/h 75 % 0.0 mm
10:42 17.4 °C 13.1 °C 1021.6 hPa WNW 1.6 km/h 12.9 km/h 76 % 0.0 mm
10:57 17.3 °C 13.0 °C 1021.9 hPa WSW 4.8 km/h 12.9 km/h 76 % 0.0 mm
11:02 17.2 °C 12.9 °C 1021.9 hPa WSW 6.4 km/h 14.5 km/h 76 % 0.0 mm
11:07 17.4 °C 12.9 °C 1021.9 hPa WNW 9.7 km/h 14.5 km/h 75 % 0.0 mm
11:12 17.3 °C 13.0 °C 1021.9 hPa West 9.7 km/h 12.9 km/h 76 % 0.0 mm
11:17 17.1 °C 12.8 °C 1021.9 hPa SW 3.2 km/h 19.3 km/h 76 % 0.0 mm
11:22 17.5 °C 13.2 °C 1021.9 hPa WNW 3.2 km/h 19.3 km/h 76 % 0.0 mm
11:32 18.2 °C 13.1 °C 1021.9 hPa West 4.8 km/h 14.5 km/h 72 % 0.0 mm
11:37 17.9 °C 12.8 °C 1021.9 hPa WNW 6.4 km/h 14.5 km/h 72 % 0.0 mm
11:42 17.9 °C 12.8 °C 1022.2 hPa WNW 6.4 km/h 17.7 km/h 72 % 0.0 mm
11:47 18.3 °C 12.3 °C 1022.2 hPa WNW 9.7 km/h 17.7 km/h 68 % 0.0 mm
11:52 18.1 °C 12.8 °C 1022.2 hPa WNW 8.0 km/h 17.7 km/h 71 % 0.0 mm
11:57 18.0 °C 12.7 °C 1022.2 hPa NW 8.0 km/h 19.3 km/h 71 % 0.0 mm
12:02 18.3 °C 12.1 °C 1022.2 hPa West 9.7 km/h 19.3 km/h 67 % 0.0 mm
12:07 18.5 °C 12.5 °C 1022.2 hPa WNW 9.7 km/h 19.3 km/h 68 % 0.0 mm
12:12 18.6 °C 12.6 °C 1022.2 hPa WNW 6.4 km/h 17.7 km/h 68 % 0.0 mm
12:17 18.7 °C 12.2 °C 1022.2 hPa WSW 3.2 km/h 17.7 km/h 66 % 0.0 mm
12:22 18.7 °C 12.2 °C 1022.2 hPa WNW 9.7 km/h 16.1 km/h 66 % 0.0 mm
12:32 18.8 °C 12.1 °C 1022.2 hPa WNW 6.4 km/h 16.1 km/h 65 % 0.0 mm
12:42 19.0 °C 12.5 °C 1022.6 hPa WNW 8.0 km/h 20.9 km/h 66 % 0.0 mm
12:47 18.9 °C 11.9 °C 1022.6 hPa NW 9.7 km/h 20.9 km/h 64 % 0.0 mm
12:52 19.1 °C 11.9 °C 1022.2 hPa WSW 6.4 km/h 20.9 km/h 63 % 0.0 mm
12:57 19.2 °C 12.2 °C 1022.6 hPa SW 12.9 km/h 16.1 km/h 64 % 0.0 mm
13:02 19.2 °C 12.2 °C 1022.6 hPa West 8.0 km/h 17.7 km/h 64 % 0.0 mm
13:12 19.2 °C 11.7 °C 1022.6 hPa NW 6.4 km/h 17.7 km/h 62 % 0.0 mm
13:17 19.4 °C 12.2 °C 1022.6 hPa West 11.3 km/h 17.7 km/h 63 % 0.0 mm
13:22 19.6 °C 12.1 °C 1022.6 hPa WSW 12.9 km/h 17.7 km/h 62 % 0.0 mm
13:27 19.9 °C 12.2 °C 1022.6 hPa WNW 4.8 km/h 17.7 km/h 61 % 0.0 mm
13:32 19.9 °C 11.9 °C 1022.6 hPa West 8.0 km/h 14.5 km/h 60 % 0.0 mm
13:37 19.9 °C 11.9 °C 1022.6 hPa WNW 1.6 km/h 17.7 km/h 60 % 0.0 mm
13:42 19.8 °C 11.6 °C 1022.6 hPa West 3.2 km/h 17.7 km/h 59 % 0.0 mm
13:52 20.3 °C 11.8 °C 1022.6 hPa West 8.0 km/h 19.3 km/h 58 % 0.0 mm
13:57 20.4 °C 12.1 °C 1022.6 hPa NW 4.8 km/h 19.3 km/h 59 % 0.0 mm
14:02 20.2 °C 12.4 °C 1022.6 hPa WNW 1.6 km/h 20.9 km/h 61 % 0.0 mm
14:07 20.6 °C 12.3 °C 1022.6 hPa NNE 8.0 km/h 20.9 km/h 59 % 0.0 mm
14:12 20.8 °C 11.4 °C 1022.2 hPa North 3.2 km/h 20.9 km/h 55 % 0.0 mm
14:17 21.0 °C 11.9 °C 1022.6 hPa WNW 14.5 km/h 16.1 km/h 56 % 0.0 mm
14:22 20.9 °C 12.1 °C 1022.6 hPa NNW 14.5 km/h 22.5 km/h 57 % 0.0 mm
14:27 20.5 °C 11.7 °C 1022.6 hPa WNW 11.3 km/h 22.5 km/h 57 % 0.0 mm
14:32 20.4 °C 11.1 °C 1022.6 hPa West 8.0 km/h 20.9 km/h 55 % 0.0 mm
14:37 20.6 °C 11.5 °C 1022.6 hPa West 6.4 km/h 20.9 km/h 56 % 0.0 mm
14:42 20.6 °C 11.5 °C 1022.6 hPa WNW 4.8 km/h 22.5 km/h 56 % 0.0 mm
14:47 20.8 °C 11.4 °C 1022.6 hPa West 12.9 km/h 22.5 km/h 55 % 0.0 mm
14:52 20.8 °C 11.7 °C 1022.6 hPa West 12.9 km/h 22.5 km/h 56 % 0.0 mm
14:57 20.7 °C 11.3 °C 1022.6 hPa WNW 14.5 km/h 19.3 km/h 55 % 0.0 mm
15:02 20.6 °C 11.0 °C 1022.6 hPa NW 11.3 km/h 24.1 km/h 54 % 0.0 mm
15:07 20.4 °C 11.3 °C 1022.9 hPa West 14.5 km/h 25.7 km/h 56 % 0.0 mm
15:12 20.4 °C 11.6 °C 1022.9 hPa NW 9.7 km/h 25.7 km/h 57 % 0.0 mm
15:17 20.8 °C 11.4 °C 1022.9 hPa NW 14.5 km/h 25.7 km/h 55 % 0.0 mm
15:22 20.8 °C 11.4 °C 1022.9 hPa NW 4.8 km/h 22.5 km/h 55 % 0.0 mm
15:27 20.7 °C 11.6 °C 1022.9 hPa WNW 3.2 km/h 22.5 km/h 56 % 0.0 mm
15:32 20.9 °C 11.2 °C 1022.6 hPa NNW 12.9 km/h 22.5 km/h 54 % 0.0 mm
15:37 20.9 °C 11.0 °C 1022.6 hPa West 6.4 km/h 20.9 km/h 53 % 0.0 mm
15:42 21.2 °C 11.2 °C 1022.6 hPa WNW 6.4 km/h 22.5 km/h 53 % 0.0 mm
15:47 21.5 °C 11.2 °C 1022.6 hPa West 1.6 km/h 22.5 km/h 52 % 0.0 mm
15:52 21.6 °C 11.3 °C 1022.6 hPa WNW 6.4 km/h 20.9 km/h 52 % 0.0 mm
15:57 21.7 °C 11.4 °C 1022.6 hPa WNW 9.7 km/h 19.3 km/h 52 % 0.0 mm
16:02 21.8 °C 11.2 °C 1022.6 hPa WSW 16.1 km/h 19.3 km/h 51 % 0.0 mm
16:07 22.1 °C 10.6 °C 1022.6 hPa WSW 9.7 km/h 19.3 km/h 48 % 0.0 mm
16:12 22.2 °C 11.3 °C 1022.6 hPa WNW 9.7 km/h 19.3 km/h 50 % 0.0 mm
16:17 22.0 °C 11.7 °C 1022.6 hPa NNW 4.8 km/h 20.9 km/h 52 % 0.0 mm
16:22 21.7 °C 11.4 °C 1022.6 hPa NNW 8.0 km/h 20.9 km/h 52 % 0.0 mm
16:27 21.3 °C 11.0 °C 1022.9 hPa WNW 8.0 km/h 20.9 km/h 52 % 0.0 mm
16:32 21.1 °C 11.4 °C 1022.9 hPa NW 8.0 km/h 16.1 km/h 54 % 0.0 mm
16:37 21.5 °C 11.5 °C 1022.9 hPa NW 11.3 km/h 20.9 km/h 53 % 0.0 mm
16:42 21.6 °C 11.6 °C 1022.9 hPa NNW 4.8 km/h 20.9 km/h 53 % 0.0 mm
16:47 21.4 °C 11.4 °C 1022.9 hPa WNW 17.7 km/h 19.3 km/h 53 % 0.0 mm
16:52 21.1 °C 11.7 °C 1022.9 hPa WNW 11.3 km/h 24.1 km/h 55 % 0.0 mm
16:57 20.9 °C 11.5 °C 1022.9 hPa NW 4.8 km/h 24.1 km/h 55 % 0.0 mm
17:02 21.1 °C 11.7 °C 1022.9 hPa NNE 3.2 km/h 24.1 km/h 55 % 0.0 mm
17:07 21.7 °C 11.4 °C 1022.9 hPa NW 6.4 km/h 14.5 km/h 52 % 0.0 mm
17:12 21.6 °C 11.6 °C 1022.9 hPa WNW 9.7 km/h 14.5 km/h 53 % 0.0 mm
17:22 21.1 °C 11.1 °C 1022.9 hPa WNW 17.7 km/h 19.3 km/h 53 % 0.0 mm
17:27 20.9 °C 11.0 °C 1022.9 hPa West 3.2 km/h 19.3 km/h 53 % 0.0 mm
17:32 21.3 °C 10.5 °C 1022.9 hPa Calm   19.3 km/h 50 % 0.0 mm
17:42 21.7 °C 11.4 °C 1022.9 hPa North 8.0 km/h 19.3 km/h 52 % 0.0 mm
17:47 21.4 °C 11.1 °C 1022.9 hPa NW 6.4 km/h 19.3 km/h 52 % 0.0 mm
17:52 21.2 °C 10.7 °C 1022.9 hPa NW 6.4 km/h 19.3 km/h 51 % 0.0 mm
17:57 21.4 °C 10.8 °C 1022.9 hPa NNW 3.2 km/h 19.3 km/h 51 % 0.0 mm
18:02 21.5 °C 10.9 °C 1022.9 hPa WNW 8.0 km/h 16.1 km/h 51 % 0.0 mm
18:07 21.3 °C 11.0 °C 1022.9 hPa WNW 11.3 km/h 16.1 km/h 52 % 0.0 mm
18:12 21.0 °C 10.8 °C 1022.9 hPa WNW 9.7 km/h 16.1 km/h 52 % 0.0 mm
18:17 20.9 °C 11.0 °C 1022.9 hPa WNW 8.0 km/h 16.1 km/h 53 % 0.0 mm
18:22 21.0 °C 11.3 °C 1022.9 hPa NW 6.4 km/h 14.5 km/h 54 % 0.0 mm
18:27 21.4 °C 11.4 °C 1022.9 hPa WNW 12.9 km/h 12.9 km/h 53 % 0.0 mm
18:32 21.8 °C 11.5 °C 1022.9 hPa NW 16.1 km/h 16.1 km/h 52 % 0.0 mm
18:42 21.7 °C 11.7 °C 1022.9 hPa WNW 1.6 km/h 24.1 km/h 53 % 0.0 mm
18:47 21.5 °C 11.8 °C 1022.9 hPa WNW 14.5 km/h 24.1 km/h 54 % 0.0 mm
18:52 21.2 °C 11.8 °C 1022.9 hPa North 9.7 km/h 24.1 km/h 55 % 0.0 mm
18:57 21.3 °C 11.6 °C 1022.9 hPa NW 3.2 km/h 20.9 km/h 54 % 0.0 mm
19:02 21.3 °C 11.9 °C 1022.9 hPa WNW 14.5 km/h 20.9 km/h 55 % 0.0 mm
19:07 21.1 °C 11.4 °C 1022.9 hPa WNW 4.8 km/h 16.1 km/h 54 % 0.0 mm
19:12 21.2 °C 11.8 °C 1023.2 hPa West 4.8 km/h 16.1 km/h 55 % 0.0 mm
19:17 21.3 °C 11.9 °C 1022.9 hPa NNW 4.8 km/h 16.1 km/h 55 % 0.0 mm
19:22 21.3 °C 11.6 °C 1023.2 hPa WNW 8.0 km/h 16.1 km/h 54 % 0.0 mm
19:32 21.4 °C 11.7 °C 1023.2 hPa WNW 9.7 km/h 16.1 km/h 54 % 0.0 mm
19:37 21.5 °C 11.8 °C 1023.2 hPa WNW 3.2 km/h 11.3 km/h 54 % 0.0 mm
19:42 21.7 °C 12.0 °C 1023.2 hPa West 6.4 km/h 11.3 km/h 54 % 0.0 mm
19:47 21.6 °C 11.6 °C 1023.2 hPa WNW 11.3 km/h 16.1 km/h 53 % 0.0 mm
19:52 21.4 °C 11.4 °C 1023.2 hPa WNW 8.0 km/h 17.7 km/h 53 % 0.0 mm
19:57 21.4 °C 11.1 °C 1023.2 hPa West 8.0 km/h 17.7 km/h 52 % 0.0 mm
20:02 21.3 °C 11.3 °C 1023.2 hPa NW 4.8 km/h 19.3 km/h 53 % 0.0 mm
20:07 21.2 °C 11.2 °C 1023.2 hPa West 4.8 km/h 19.3 km/h 53 % 0.0 mm
20:12 21.2 °C 11.5 °C 1023.2 hPa SW 6.4 km/h 19.3 km/h 54 % 0.0 mm
20:17 21.1 °C 11.4 °C 1023.2 hPa WNW 8.0 km/h 16.1 km/h 54 % 0.0 mm
20:22 21.1 °C 11.7 °C 1023.2 hPa WNW 3.2 km/h 12.9 km/h 55 % 0.0 mm
20:27 21.1 °C 11.7 °C 1023.6 hPa WNW 1.6 km/h 12.9 km/h 55 % 0.0 mm
20:32 20.8 °C 11.7 °C 1023.6 hPa NW 3.2 km/h 9.7 km/h 56 % 0.0 mm
20:37 20.7 °C 11.9 °C 1023.6 hPa WNW 3.2 km/h 8.0 km/h 57 % 0.0 mm
20:42 20.4 °C 11.6 °C 1023.6 hPa West 8.0 km/h 8.0 km/h 57 % 0.0 mm
20:47 20.2 °C 11.7 °C 1023.6 hPa WNW 4.8 km/h 8.0 km/h 58 % 0.0 mm
20:52 19.9 °C 11.4 °C 1023.9 hPa WNW 3.2 km/h 9.7 km/h 58 % 0.0 mm
20:57 19.7 °C 11.5 °C 1023.9 hPa NW 4.8 km/h 9.7 km/h 59 % 0.0 mm
21:02 19.5 °C 11.3 °C 1023.9 hPa West 6.4 km/h 9.7 km/h 59 % 0.0 mm
21:07 19.2 °C 11.2 °C 1023.9 hPa WNW 4.8 km/h 8.0 km/h 60 % 0.0 mm
21:12 18.9 °C 11.2 °C 1023.9 hPa WNW 3.2 km/h 8.0 km/h 61 % 0.0 mm
21:17 18.7 °C 11.3 °C 1023.9 hPa NW 1.6 km/h 8.0 km/h 62 % 0.0 mm
21:22 18.6 °C 11.4 °C 1023.9 hPa WNW 3.2 km/h 9.7 km/h 63 % 0.0 mm
21:27 18.4 °C 11.2 °C 1023.9 hPa WNW 6.4 km/h 9.7 km/h 63 % 0.0 mm
21:32 18.2 °C 11.3 °C 1023.9 hPa WNW 3.2 km/h 9.7 km/h 64 % 0.0 mm
21:37 18.1 °C 11.2 °C 1024.3 hPa Calm   8.0 km/h 64 % 0.0 mm
21:42 17.9 °C 11.2 °C 1024.3 hPa WNW 4.8 km/h 8.0 km/h 65 % 0.0 mm
21:47 17.8 °C 11.1 °C 1024.3 hPa WNW 3.2 km/h 8.0 km/h 65 % 0.0 mm
21:57 17.3 °C 11.1 °C 1024.3 hPa West 3.2 km/h 8.0 km/h 67 % 0.0 mm
22:02 17.1 °C 11.1 °C 1024.3 hPa Calm   4.8 km/h 68 % 0.0 mm
22:07 16.8 °C 11.1 °C 1024.3 hPa Calm   3.2 km/h 69 % 0.0 mm
22:12 16.4 °C 11.1 °C 1024.6 hPa Calm   3.2 km/h 71 % 0.0 mm
22:17 16.3 °C 11.2 °C 1024.6 hPa West 4.8 km/h 4.8 km/h 72 % 0.0 mm
22:22 16.2 °C 11.1 °C 1024.3 hPa WNW 1.6 km/h 4.8 km/h 72 % 0.0 mm
22:27 15.9 °C 11.1 °C 1024.6 hPa WNW 1.6 km/h 4.8 km/h 73 % 0.0 mm
22:32 15.8 °C 11.2 °C 1024.6 hPa West 1.6 km/h 4.8 km/h 74 % 0.0 mm
22:37 15.6 °C 10.8 °C 1024.6 hPa WNW 1.6 km/h 4.8 km/h 73 % 0.0 mm
22:42 15.5 °C 10.9 °C 1024.6 hPa WNW 3.2 km/h 4.8 km/h 74 % 0.0 mm
22:47 15.6 °C 11.2 °C 1024.6 hPa WNW 1.6 km/h 4.8 km/h 75 % 0.0 mm
22:52 15.6 °C 11.2 °C 1024.6 hPa West 1.6 km/h 4.8 km/h 75 % 0.0 mm
22:57 15.4 °C 11.0 °C 1024.6 hPa Calm   4.8 km/h 75 % 0.0 mm
23:02 15.0 °C 10.8 °C 1024.6 hPa WNW 1.6 km/h 4.8 km/h 76 % 0.0 mm
23:07 14.7 °C 10.9 °C 1024.6 hPa Calm   3.2 km/h 78 % 0.0 mm
23:12 14.6 °C 11.0 °C 1024.6 hPa Calm   1.6 km/h 79 % 0.0 mm
23:22 14.3 °C 10.7 °C 1024.9 hPa Calm   1.6 km/h 79 % 0.0 mm
23:32 14.6 °C 11.2 °C 1024.9 hPa Calm     80 % 0.0 mm
23:37 14.7 °C 11.3 °C 1024.9 hPa Calm     80 % 0.0 mm
23:42 14.7 °C 11.3 °C 1024.9 hPa Calm     80 % 0.0 mm
23:47 14.8 °C 11.2 °C 1024.9 hPa Calm     79 % 0.0 mm
23:52 14.8 °C 11.2 °C 1024.9 hPa Calm     79 % 0.0 mm
23:57 14.7 °C 11.3 °C 1024.9 hPa Calm     80 % 0.0 mm
Meteo18
Compliments of Weather Underground - 4 mb

Script developed by  Jim McMurry - jmcmurry@mwt.net Adapted for the template by  Wim van der Kuil - Leuven-Template.eu

You find our weather info also at:

European Weather Network

Weather Underground

Equipment we use:

Weather-station
Davis Vue

Weather-program
Meteohub

Weather-server
Raspberry PI 2 B+

Provider
1 and 1

Davis Vue

Meteohub

Raspberry PI 2 B+

1 and 1